Time;durP1;ratioP1;P1;durP2;ratioP2;P2;SDS_P1;SDS_P2;PMS_P1;PMS_P2;Temp;Humidity;BMP_temperature;BMP_pressure;BME280_temperature;BME280_humidity;BME280_pressure;Samples;Min_cycle;Max_cycle;Signal;HPM_P1;HPM_P2
2021/11/26 00:02:18;;;;;;;12.98;5.15;;;4.20;84.50;;;;;;4950706;29;20063;-87
2021/11/26 00:04:44;;;;;;;13.80;5.72;;;4.20;84.50;;;;;;4959419;29;20042;-88
2021/11/26 00:07:10;;;;;;;8.70;4.68;;;4.30;84.70;;;;;;4940243;29;20035;-87
2021/11/26 00:09:35;;;;;;;6.70;4.15;;;4.30;84.50;;;;;;4939124;29;20078;-87
2021/11/26 00:12:02;;;;;;;9.73;6.00;;;4.40;84.80;;;;;;4956088;29;20035;-87
2021/11/26 00:14:31;;;;;;;8.80;4.53;;;4.40;84.80;;;;;;4942142;29;20042;-87
2021/11/26 00:16:58;;;;;;;13.65;5.80;;;4.40;84.80;;;;;;4941853;29;20051;-88
2021/11/26 00:19:27;;;;;;;12.77;5.05;;;4.50;84.90;;;;;;4941891;29;20031;-88
2021/11/26 00:21:54;;;;;;;20.60;7.15;;;4.50;84.90;;;;;;4938937;29;20035;-87
2021/11/26 00:24:20;;;;;;;24.35;7.88;;;4.60;85.10;;;;;;4941415;29;20570;-87
2021/11/26 00:26:47;;;;;;;32.63;11.50;;;4.60;84.80;;;;;;4938710;29;20130;-87
2021/11/26 00:29:14;;;;;;;28.00;11.57;;;4.60;84.80;;;;;;4940395;29;20382;-87
2021/11/26 00:31:40;;;;;;;28.10;12.50;;;4.60;84.80;;;;;;4938555;29;20036;-88
2021/11/26 00:34:06;;;;;;;31.15;11.30;;;4.60;85.00;;;;;;4939070;29;20063;-88
2021/11/26 00:36:33;;;;;;;25.15;10.80;;;4.60;85.00;;;;;;4938312;29;20036;-88
2021/11/26 00:39:00;;;;;;;28.48;9.52;;;4.60;85.10;;;;;;4938515;29;20067;-87
2021/11/26 00:41:27;;;;;;;28.95;11.68;;;4.60;85.30;;;;;;4938343;29;20093;-87
2021/11/26 00:43:53;;;;;;;21.30;11.40;;;4.50;85.70;;;;;;4938553;29;20074;-87
2021/11/26 00:46:19;;;;;;;35.25;12.23;;;4.60;85.70;;;;;;4940702;29;20083;-87
2021/11/26 00:48:45;;;;;;;29.65;11.02;;;4.50;85.80;;;;;;4938570;29;20047;-87
2021/11/26 00:51:11;;;;;;;30.98;12.68;;;4.50;85.80;;;;;;4940370;29;20075;-87
2021/11/26 00:53:37;;;;;;;29.60;12.25;;;4.50;85.90;;;;;;4938352;29;20032;-87
2021/11/26 00:56:04;;;;;;;33.42;13.23;;;4.50;85.90;;;;;;4955551;29;20466;-87
2021/11/26 00:58:30;;;;;;;26.73;11.10;;;4.40;86.20;;;;;;4938233;29;20506;-87
2021/11/26 01:00:56;;;;;;;19.45;9.82;;;4.40;86.30;;;;;;4938151;29;20080;-87
2021/11/26 01:03:22;;;;;;;21.70;9.80;;;4.40;87.10;;;;;;4940842;29;20073;-87
2021/11/26 01:05:49;;;;;;;16.13;8.05;;;4.40;87.20;;;;;;4938009;29;20508;-87
2021/11/26 01:08:19;;;;;;;12.77;6.18;;;4.30;87.20;;;;;;4957180;29;20031;-87
2021/11/26 01:10:46;;;;;;;15.57;6.15;;;4.30;87.30;;;;;;4938514;29;20035;-87
2021/11/26 01:13:12;;;;;;;12.43;6.07;;;4.20;87.40;;;;;;4939284;29;20130;-87
2021/11/26 01:15:39;;;;;;;11.68;6.70;;;4.20;87.80;;;;;;4937858;29;20127;-87
2021/11/26 01:18:06;;;;;;;11.60;5.80;;;4.20;88.40;;;;;;4955342;29;20039;-88
2021/11/26 01:20:32;;;;;;;17.13;8.32;;;4.20;88.80;;;;;;4937791;29;20127;-87
2021/11/26 01:22:59;;;;;;;26.30;10.18;;;4.20;88.90;;;;;;4957690;29;20114;-88
2021/11/26 01:25:26;;;;;;;24.85;11.10;;;4.30;89.30;;;;;;4974307;29;20114;-87
2021/11/26 01:27:51;;;;;;;27.10;11.52;;;4.30;89.50;;;;;;4978831;29;20031;-87
2021/11/26 01:30:25;;;;;;;33.60;12.35;;;4.30;89.80;;;;;;4957938;29;20047;-87
2021/11/26 01:32:53;;;;;;;35.45;12.93;;;4.40;90.20;;;;;;4958055;29;20162;-88
2021/11/26 01:35:19;;;;;;;34.70;11.45;;;4.40;89.90;;;;;;4939869;29;20036;-87
2021/11/26 01:37:45;;;;;;;37.20;12.45;;;4.40;90.00;;;;;;4937530;29;20075;-86
2021/11/26 01:40:11;;;;;;;30.30;13.23;;;4.40;90.10;;;;;;4938505;29;20039;-87
2021/11/26 01:42:37;;;;;;;27.50;11.02;;;4.30;90.10;;;;;;4937678;29;20042;-87
2021/11/26 01:45:04;;;;;;;23.20;11.65;;;4.30;90.20;;;;;;4954839;29;20407;-86
2021/11/26 01:47:29;;;;;;;28.55;11.23;;;4.30;90.50;;;;;;4957473;29;20105;-87
2021/11/26 01:49:56;;;;;;;44.60;13.85;;;4.30;90.60;;;;;;4937030;29;20135;-87
2021/11/26 01:52:22;;;;;;;36.90;13.77;;;4.30;90.60;;;;;;4939825;29;20040;-87
2021/11/26 01:54:47;;;;;;;33.90;13.15;;;4.30;90.60;;;;;;4937188;29;20391;-87
2021/11/26 01:57:16;;;;;;;28.85;12.57;;;4.30;90.60;;;;;;4956038;29;20035;-87
2021/11/26 01:59:42;;;;;;;30.00;10.68;;;4.30;90.80;;;;;;4937081;29;20035;-87
2021/11/26 02:02:09;;;;;;;31.15;10.23;;;4.20;90.80;;;;;;4954768;29;20035;-88
2021/11/26 02:04:34;;;;;;;21.80;11.00;;;4.30;91.10;;;;;;4937541;29;20039;-88
2021/11/26 02:07:00;;;;;;;27.08;10.25;;;4.20;91.00;;;;;;4953882;29;20372;-87
2021/11/26 02:09:27;;;;;;;27.52;11.88;;;4.20;91.20;;;;;;4957303;29;20039;-87
2021/11/26 02:11:53;;;;;;;22.65;8.98;;;4.20;91.20;;;;;;4937423;29;20498;-87
2021/11/26 02:14:18;;;;;;;20.70;7.88;;;4.20;91.40;;;;;;4938944;29;20039;-87
2021/11/26 02:16:46;;;;;;;13.55;5.60;;;4.30;91.50;;;;;;4957080;28;20051;-87
2021/11/26 02:19:13;;;;;;;14.63;6.00;;;4.30;91.50;;;;;;4937986;29;20134;-87
2021/11/26 02:21:40;;;;;;;12.48;6.13;;;4.30;91.60;;;;;;4957903;29;20087;-87
2021/11/26 02:24:06;;;;;;;9.15;5.65;;;4.30;91.60;;;;;;4941005;29;20040;-87
2021/11/26 02:26:41;;;;;;;11.05;6.07;;;4.40;91.50;;;;;;4941593;29;20174;-87
2021/11/26 02:29:08;;;;;;;10.98;4.53;;;4.40;91.80;;;;;;4939312;29;20522;-87
2021/11/26 02:31:34;;;;;;;10.88;5.57;;;4.40;91.40;;;;;;4956873;29;20114;-87
2021/11/26 02:34:00;;;;;;;10.73;6.40;;;4.40;91.50;;;;;;4936224;29;20195;-88
2021/11/26 02:36:26;;;;;;;11.23;5.70;;;4.30;91.70;;;;;;4939185;29;20047;-88
2021/11/26 02:38:52;;;;;;;9.10;5.50;;;4.30;91.80;;;;;;4937322;29;20040;-87
2021/11/26 02:41:17;;;;;;;10.95;6.05;;;4.40;91.80;;;;;;4939816;29;20368;-87
2021/11/26 02:43:43;;;;;;;10.95;6.38;;;4.40;92.00;;;;;;4958046;29;20039;-87
2021/11/26 02:46:09;;;;;;;12.60;5.75;;;4.40;92.00;;;;;;4938086;29;20111;-87
2021/11/26 02:48:35;;;;;;;11.48;6.30;;;4.40;92.10;;;;;;4958185;29;20367;-87
2021/11/26 02:51:01;;;;;;;10.13;6.28;;;4.40;92.10;;;;;;4942200;29;20032;-87
2021/11/26 02:53:26;;;;;;;9.07;4.95;;;4.40;92.10;;;;;;4944467;29;20566;-87
2021/11/26 02:55:52;;;;;;;7.78;4.40;;;4.50;92.00;;;;;;4962114;29;20063;-87
2021/11/26 02:58:18;;;;;;;14.43;5.65;;;4.50;92.10;;;;;;4961423;29;20113;-87
2021/11/26 03:00:48;;;;;;;11.52;4.45;;;4.50;92.10;;;;;;4956356;29;20032;-87
2021/11/26 03:03:14;;;;;;;14.73;5.07;;;4.50;92.10;;;;;;4956580;29;20035;-87
2021/11/26 03:05:40;;;;;;;8.57;4.22;;;4.50;92.30;;;;;;4936190;29;20498;-88
2021/11/26 03:08:07;;;;;;;6.85;4.43;;;4.60;92.30;;;;;;4953630;29;20043;-87
2021/11/26 03:10:33;;;;;;;9.13;3.88;;;4.60;92.30;;;;;;4935890;29;20048;-86
2021/11/26 03:13:02;;;;;;;10.40;4.70;;;4.70;92.30;;;;;;4952589;29;20027;-87
2021/11/26 03:15:29;;;;;;;13.25;6.40;;;4.70;92.40;;;;;;4938905;29;20039;-87
2021/11/26 03:17:55;;;;;;;14.45;7.13;;;4.70;92.30;;;;;;4956528;29;20036;-87
2021/11/26 03:20:23;;;;;;;15.45;7.13;;;4.70;92.40;;;;;;4938261;29;20036;-87
2021/11/26 03:22:49;;;;;;;14.68;7.00;;;4.80;92.40;;;;;;4935665;29;20076;-87
2021/11/26 03:25:15;;;;;;;14.30;6.00;;;4.80;92.40;;;;;;4954379;29;20045;-87
2021/11/26 03:27:42;;;;;;;13.77;7.10;;;4.80;92.30;;;;;;4935592;29;20122;-87
2021/11/26 03:30:10;;;;;;;17.05;8.45;;;4.80;92.40;;;;;;4952611;28;20074;-87
2021/11/26 03:32:36;;;;;;;17.48;8.13;;;4.80;92.40;;;;;;4935555;29;20032;-87
2021/11/26 03:35:03;;;;;;;21.23;6.78;;;4.80;92.50;;;;;;4935354;29;20036;-87
2021/11/26 03:37:29;;;;;;;14.13;6.18;;;4.80;92.30;;;;;;4938649;29;20041;-87
2021/11/26 03:39:55;;;;;;;10.85;5.35;;;4.80;92.30;;;;;;4939196;29;20053;-87
2021/11/26 03:42:21;;;;;;;11.68;5.10;;;4.80;92.30;;;;;;4938651;29;20527;-87
2021/11/26 03:44:46;;;;;;;12.90;5.13;;;4.80;92.30;;;;;;4935173;29;20146;-87
2021/11/26 03:47:12;;;;;;;16.00;6.57;;;4.80;92.20;;;;;;4953935;29;20046;-87
2021/11/26 03:49:38;;;;;;;9.02;4.55;;;4.80;92.50;;;;;;4955824;29;20038;-87
2021/11/26 03:52:04;;;;;;;11.45;6.05;;;4.80;92.30;;;;;;4935636;29;20506;-88
2021/11/26 03:54:30;;;;;;;6.65;4.03;;;4.80;92.40;;;;;;4935213;29;20048;-88
2021/11/26 03:56:56;;;;;;;11.95;4.82;;;4.70;92.40;;;;;;4935081;29;20047;-88
2021/11/26 03:59:21;;;;;;;13.13;5.68;;;4.70;92.50;;;;;;4954623;29;20042;-88
2021/11/26 04:01:47;;;;;;;13.25;6.20;;;4.70;92.70;;;;;;4935855;29;20042;-87
2021/11/26 04:04:13;;;;;;;9.50;4.47;;;4.80;92.80;;;;;;4936789;29;20040;-87
2021/11/26 04:06:38;;;;;;;14.00;5.55;;;4.80;92.70;;;;;;4955633;29;20039;-87
2021/11/26 04:09:05;;;;;;;19.98;7.13;;;4.90;92.80;;;;;;4956187;29;20375;-87
2021/11/26 04:11:34;;;;;;;23.75;8.57;;;4.90;92.90;;;;;;4955578;29;20043;-87
2021/11/26 04:14:00;;;;;;;21.67;7.63;;;4.90;92.90;;;;;;4935157;29;20100;-87
2021/11/26 04:16:25;;;;;;;29.27;12.15;;;5.00;92.90;;;;;;4938240;29;20035;-88
2021/11/26 04:18:51;;;;;;;23.58;10.38;;;5.00;92.90;;;;;;4936729;29;20441;-87
2021/11/26 04:21:17;;;;;;;23.95;10.43;;;5.00;92.80;;;;;;4962459;29;20441;-87
2021/11/26 04:23:44;;;;;;;24.02;10.85;;;5.00;92.80;;;;;;4943601;29;20100;-87
2021/11/26 04:26:10;;;;;;;20.85;10.88;;;5.00;92.80;;;;;;4953165;29;20043;-87
2021/11/26 04:28:36;;;;;;;35.85;14.77;;;5.00;92.90;;;;;;4944017;29;20578;-87
2021/11/26 04:31:03;;;;;;;23.73;11.43;;;5.00;92.90;;;;;;4935175;29;20127;-88
2021/11/26 04:33:29;;;;;;;24.77;9.77;;;5.00;92.90;;;;;;4938203;29;20039;-87
2021/11/26 04:35:55;;;;;;;24.20;10.88;;;5.00;93.00;;;;;;4955574;29;20032;-87
2021/11/26 04:38:20;;;;;;;25.70;8.50;;;5.10;93.00;;;;;;4937345;29;20047;-87
2021/11/26 04:40:46;;;;;;;26.77;10.13;;;5.10;93.00;;;;;;4935645;29;20039;-87
2021/11/26 04:43:13;;;;;;;24.30;7.10;;;5.10;93.00;;;;;;4939723;29;20063;-87
2021/11/26 04:45:39;;;;;;;15.80;8.68;;;5.10;93.00;;;;;;4938231;29;20047;-88
2021/11/26 04:48:05;;;;;;;17.70;7.20;;;5.10;93.00;;;;;;4938817;29;20490;-87
2021/11/26 04:50:31;;;;;;;22.13;8.82;;;5.10;93.00;;;;;;4938364;29;20032;-87
2021/11/26 04:52:57;;;;;;;24.05;8.25;;;5.10;92.90;;;;;;4954471;29;20035;-87
2021/11/26 04:55:23;;;;;;;21.30;7.88;;;5.10;93.00;;;;;;4940945;29;20054;-87
2021/11/26 04:57:49;;;;;;;13.30;7.60;;;5.10;92.90;;;;;;4958595;29;20458;-87
2021/11/26 05:00:18;;;;;;;17.65;6.72;;;5.10;93.00;;;;;;4940112;29;20063;-87
2021/11/26 05:02:45;;;;;;;13.50;5.38;;;5.10;93.00;;;;;;4938138;29;20044;-86
2021/11/26 05:05:11;;;;;;;11.35;5.30;;;5.10;93.00;;;;;;4939529;29;20047;-86
2021/11/26 05:07:36;;;;;;;9.13;4.88;;;5.10;93.10;;;;;;4937793;29;20411;-86
2021/11/26 05:10:06;;;;;;;9.40;4.72;;;5.10;93.10;;;;;;4937693;29;20035;-87
2021/11/26 05:12:36;;;;;;;11.93;5.50;;;5.10;93.20;;;;;;4937798;29;20039;-87
2021/11/26 05:15:04;;;;;;;10.10;5.07;;;5.10;93.20;;;;;;4938332;29;20048;-86
2021/11/26 05:17:29;;;;;;;20.70;6.53;;;5.10;93.20;;;;;;4937849;29;20035;-87
2021/11/26 05:19:55;;;;;;;21.95;6.05;;;5.10;93.20;;;;;;4937789;29;20039;-87
2021/11/26 05:22:21;;;;;;;18.20;5.35;;;5.10;93.20;;;;;;4940243;29;20071;-87
2021/11/26 05:24:47;;;;;;;15.38;5.65;;;5.10;93.20;;;;;;4937651;29;20114;-87
2021/11/26 05:27:13;;;;;;;19.42;6.20;;;5.10;93.10;;;;;;4938954;29;20043;-88
2021/11/26 05:29:38;;;;;;;7.10;3.85;;;5.10;93.10;;;;;;4957782;29;20039;-87
2021/11/26 05:32:04;;;;;;;8.77;3.92;;;5.00;93.10;;;;;;4937996;29;20036;-87
2021/11/26 05:34:30;;;;;;;7.20;3.88;;;4.90;93.10;;;;;;4937223;29;20070;-88
2021/11/26 05:36:56;;;;;;;8.55;3.67;;;4.90;93.00;;;;;;4953828;29;20075;-86
2021/11/26 05:39:22;;;;;;;4.75;3.03;;;4.80;93.00;;;;;;4957854;29;20046;-87
2021/11/26 05:41:47;;;;;;;9.38;4.15;;;4.70;93.40;;;;;;4937225;29;20481;-90
2021/11/26 05:44:13;;;;;;;13.00;4.00;;;4.70;93.40;;;;;;4938861;29;20043;-86
2021/11/26 05:46:39;;;;;;;7.78;3.63;;;4.60;93.40;;;;;;4968777;29;20046;-86
2021/11/26 05:49:04;;;;;;;5.30;3.60;;;4.60;93.70;;;;;;4972078;29;20062;-86
2021/11/26 05:51:30;;;;;;;10.60;5.90;;;4.60;93.80;;;;;;4971225;28;20038;-86
2021/11/26 05:53:56;;;;;;;9.95;4.72;;;4.70;94.00;;;;;;4948373;29;20055;-87
2021/11/26 05:56:22;;;;;;;10.10;4.43;;;4.80;94.00;;;;;;4942039;29;20097;-87
2021/11/26 05:58:48;;;;;;;9.98;4.55;;;4.80;93.90;;;;;;4937947;29;20509;-87
2021/11/26 06:01:13;;;;;;;10.60;4.90;;;4.80;93.90;;;;;;4938488;29;20439;-87
2021/11/26 06:03:39;;;;;;;12.48;5.57;;;4.90;93.90;;;;;;4937182;29;20527;-87
2021/11/26 06:06:05;;;;;;;8.23;4.57;;;4.90;93.80;;;;;;4936871;29;20044;-87
2021/11/26 06:08:31;;;;;;;12.38;4.90;;;5.00;93.80;;;;;;4936567;29;20038;-87
2021/11/26 06:10:57;;;;;;;13.07;5.82;;;5.00;93.70;;;;;;4936806;29;20075;-87
2021/11/26 06:13:22;;;;;;;16.55;7.75;;;5.10;93.70;;;;;;4939313;29;20039;-87
2021/11/26 06:15:48;;;;;;;10.48;5.68;;;5.10;93.70;;;;;;4936162;29;20036;-87
2021/11/26 06:18:14;;;;;;;12.63;5.25;;;5.20;93.90;;;;;;4938011;29;20591;-87
2021/11/26 06:20:40;;;;;;;15.57;6.53;;;5.20;93.70;;;;;;4936585;29;20043;-87
2021/11/26 06:23:06;;;;;;;11.27;4.82;;;5.30;93.70;;;;;;4953937;29;20038;-87
2021/11/26 06:25:32;;;;;;;8.93;4.82;;;5.30;93.60;;;;;;4936103;29;20047;-88
2021/11/26 06:27:58;;;;;;;10.55;4.68;;;5.40;93.70;;;;;;4936439;29;20074;-88
2021/11/26 06:30:24;;;;;;;12.20;5.07;;;5.50;93.60;;;;;;4939604;29;20485;-88
2021/11/26 06:32:51;;;;;;;9.85;4.10;;;5.60;93.60;;;;;;4936200;29;20043;-87
2021/11/26 06:35:20;;;;;;;6.93;4.13;;;5.70;93.40;;;;;;4937645;29;20054;-88
2021/11/26 06:37:49;;;;;;;9.15;4.68;;;5.70;93.20;;;;;;4935817;29;20043;-87
2021/11/26 06:40:16;;;;;;;9.77;4.97;;;5.80;93.10;;;;;;4938622;29;20130;-88
2021/11/26 06:42:42;;;;;;;9.45;4.47;;;5.90;92.90;;;;;;4956592;29;20047;-88
2021/11/26 06:45:09;;;;;;;9.43;3.30;;;6.00;92.80;;;;;;4938110;29;20489;-87
2021/11/26 06:47:35;;;;;;;12.80;5.47;;;6.00;92.80;;;;;;4940794;29;20122;-87
2021/11/26 06:50:02;;;;;;;13.23;5.35;;;6.10;92.80;;;;;;4940198;29;20063;-87
2021/11/26 06:52:28;;;;;;;10.18;5.13;;;6.10;92.80;;;;;;4938324;29;20040;-88
2021/11/26 06:54:55;;;;;;;14.07;5.35;;;6.30;92.70;;;;;;4936524;29;20036;-87
2021/11/26 06:57:20;;;;;;;11.23;5.78;;;6.40;92.70;;;;;;4938164;29;20066;-88
2021/11/26 06:59:46;;;;;;;13.70;6.30;;;6.50;92.60;;;;;;4935650;29;20040;-87
2021/11/26 07:02:12;;;;;;;13.23;6.00;;;6.70;92.30;;;;;;4937604;29;20134;-88
2021/11/26 07:04:40;;;;;;;9.35;5.15;;;6.80;92.10;;;;;;4936171;29;20127;-88
2021/11/26 07:07:06;;;;;;;14.52;6.13;;;6.80;91.90;;;;;;4936414;29;20167;-89
2021/11/26 07:09:32;;;;;;;10.88;4.60;;;6.90;91.80;;;;;;4935512;29;20373;-89
2021/11/26 07:11:58;;;;;;;11.38;5.72;;;6.90;91.60;;;;;;4952112;29;20035;-89
2021/11/26 07:14:24;;;;;;;9.23;5.13;;;7.00;91.60;;;;;;4941123;29;20130;-88
2021/11/26 07:16:49;;;;;;;6.78;4.25;;;7.00;91.60;;;;;;4952891;29;20036;-89
2021/11/26 07:19:15;;;;;;;9.60;4.85;;;7.10;91.50;;;;;;4974780;29;20119;-88
2021/11/26 07:21:41;;;;;;;11.25;5.53;;;7.20;91.30;;;;;;4956417;29;20050;-88
2021/11/26 07:24:07;;;;;;;10.55;5.05;;;7.30;91.20;;;;;;4947123;29;20040;-89
2021/11/26 07:26:33;;;;;;;12.82;6.45;;;7.40;91.20;;;;;;4937144;29;20044;-89
2021/11/26 07:28:59;;;;;;;15.02;5.97;;;7.50;91.00;;;;;;4935963;29;20031;-88
2021/11/26 07:31:25;;;;;;;13.18;4.82;;;7.60;90.80;;;;;;4938394;29;20087;-87
2021/11/26 07:33:50;;;;;;;12.82;5.95;;;7.60;90.90;;;;;;4935694;29;20401;-89
2021/11/26 07:36:16;;;;;;;8.57;4.47;;;7.60;90.50;;;;;;4937576;29;20050;-86
2021/11/26 07:38:42;;;;;;;8.70;4.38;;;7.60;90.40;;;;;;4935254;29;20043;-87
2021/11/26 07:41:08;;;;;;;8.93;5.15;;;7.60;90.30;;;;;;4952632;29;20073;-87
2021/11/26 07:43:33;;;;;;;11.68;5.63;;;7.60;90.40;;;;;;4935190;29;20070;-88
2021/11/26 07:46:01;;;;;;;16.75;6.32;;;7.60;90.40;;;;;;4934568;29;20455;-88
2021/11/26 07:48:27;;;;;;;15.88;7.47;;;7.60;90.40;;;;;;4934690;29;20099;-88
2021/11/26 07:50:55;;;;;;;18.23;8.00;;;7.70;90.50;;;;;;4934917;29;20036;-88
2021/11/26 07:53:21;;;;;;;14.18;6.68;;;7.70;90.30;;;;;;4954308;29;20031;-89
2021/11/26 07:55:47;;;;;;;17.52;8.93;;;7.80;90.30;;;;;;4934472;29;20183;-89
2021/11/26 07:58:17;;;;;;;14.70;7.85;;;7.90;90.30;;;;;;4936097;29;20054;-85
2021/11/26 08:00:42;;;;;;;16.80;7.22;;;7.90;90.20;;;;;;4934723;29;20367;-87
2021/11/26 08:03:08;;;;;;;9.05;5.03;;;8.10;90.10;;;;;;4935374;29;20036;-87
2021/11/26 08:05:34;;;;;;;17.42;6.57;;;8.20;90.00;;;;;;4934857;29;20078;-88
2021/11/26 08:08:01;;;;;;;21.40;7.97;;;8.30;89.30;;;;;;4934837;29;20395;-86
2021/11/26 08:10:27;;;;;;;12.95;6.03;;;8.30;89.40;;;;;;4935145;29;20474;-89
2021/11/26 08:12:53;;;;;;;11.98;5.45;;;8.40;87.90;;;;;;4934485;29;20146;-88
2021/11/26 08:15:20;;;;;;;9.73;4.97;;;8.30;88.00;;;;;;4937341;29;20127;-88
2021/11/26 08:17:46;;;;;;;8.60;4.53;;;8.30;88.30;;;;;;4938551;29;20475;-87
2021/11/26 08:20:15;;;;;;;7.82;4.72;;;8.30;88.70;;;;;;4957215;29;20110;-88
2021/11/26 08:22:42;;;;;;;8.05;4.40;;;8.30;88.50;;;;;;4938247;29;20032;-88
2021/11/26 08:25:09;;;;;;;8.45;4.30;;;8.30;88.20;;;;;;4939084;29;20126;-87
2021/11/26 08:27:36;;;;;;;5.95;3.50;;;8.30;88.20;;;;;;4938612;29;20406;-88
2021/11/26 08:30:03;;;;;;;5.25;3.28;;;8.40;88.50;;;;;;4938414;29;20032;-87
2021/11/26 08:32:29;;;;;;;4.93;3.10;;;8.40;88.40;;;;;;4938600;29;20043;-88
2021/11/26 08:34:54;;;;;;;7.43;4.15;;;8.50;88.20;;;;;;4954449;29;20109;-88
2021/11/26 08:37:20;;;;;;;4.93;3.67;;;8.60;87.70;;;;;;4940819;29;20383;-88
2021/11/26 08:39:48;;;;;;;7.03;4.25;;;8.60;87.60;;;;;;4938621;29;20461;-88
2021/11/26 08:42:14;;;;;;;7.50;3.90;;;8.70;87.20;;;;;;4939484;29;20175;-88
2021/11/26 08:44:40;;;;;;;5.82;4.05;;;8.70;86.80;;;;;;4938757;29;20058;-88
2021/11/26 08:47:06;;;;;;;4.65;4.18;;;8.70;86.80;;;;;;4965580;29;20035;-88
2021/11/26 08:49:31;;;;;;;7.30;5.10;;;8.70;86.90;;;;;;4947353;29;20114;-88
2021/11/26 08:51:57;;;;;;;6.30;4.18;;;8.80;86.80;;;;;;4947501;29;20055;-87
2021/11/26 08:54:26;;;;;;;4.97;3.00;;;8.80;86.40;;;;;;4948115;29;20031;-87
2021/11/26 08:56:55;;;;;;;4.00;3.17;;;8.90;86.00;;;;;;4940229;29;20140;-88
2021/11/26 08:59:25;;;;;;;4.88;3.17;;;8.90;85.80;;;;;;4942108;29;20039;-88
2021/11/26 09:01:53;;;;;;;6.55;3.35;;;8.90;86.00;;;;;;4938174;29;20039;-88
2021/11/26 09:04:21;;;;;;;4.50;3.08;;;8.90;85.90;;;;;;4940417;29;20127;-88
2021/11/26 09:06:48;;;;;;;7.90;4.68;;;9.00;85.70;;;;;;4958598;29;20407;-87
2021/11/26 09:09:15;;;;;;;4.18;3.47;;;9.00;85.80;;;;;;4939352;29;20032;-88
2021/11/26 09:11:41;;;;;;;5.15;3.45;;;9.00;85.70;;;;;;4937769;29;20040;-88
2021/11/26 09:14:07;;;;;;;10.05;4.68;;;9.10;85.60;;;;;;4938039;29;20453;-88
2021/11/26 09:16:35;;;;;;;6.88;4.80;;;9.10;85.70;;;;;;4937443;29;20040;-88
2021/11/26 09:19:01;;;;;;;4.80;4.00;;;9.20;85.00;;;;;;4937002;29;20118;-87
2021/11/26 09:21:27;;;;;;;10.43;5.15;;;9.20;84.60;;;;;;4957966;29;20482;-87
2021/11/26 09:23:52;;;;;;;7.13;5.20;;;9.20;84.60;;;;;;4936345;29;20063;-88
2021/11/26 09:26:19;;;;;;;4.55;3.78;;;9.20;84.90;;;;;;4938954;28;20035;-88
2021/11/26 09:28:46;;;;;;;6.55;4.10;;;9.20;85.00;;;;;;4936002;29;20043;-87
2021/11/26 09:31:12;;;;;;;4.95;2.78;;;9.30;84.70;;;;;;4937512;29;20083;-88
2021/11/26 09:33:38;;;;;;;7.95;4.00;;;9.30;84.80;;;;;;4937510;29;20051;-87
2021/11/26 09:36:06;;;;;;;7.25;4.30;;;9.40;84.90;;;;;;4937161;29;20035;-88
2021/11/26 09:38:33;;;;;;;7.38;5.35;;;9.40;85.20;;;;;;4937060;29;20043;-88
2021/11/26 09:41:00;;;;;;;7.45;3.67;;;9.50;83.90;;;;;;4936805;29;20032;-88
2021/11/26 09:43:27;;;;;;;4.53;2.60;;;9.50;83.90;;;;;;4939578;29;20066;-87
2021/11/26 09:45:53;;;;;;;4.70;2.95;;;9.50;83.90;;;;;;4936662;29;20052;-87
2021/11/26 09:48:18;;;;;;;5.88;3.38;;;9.50;84.00;;;;;;4939410;29;20043;-86
2021/11/26 09:50:44;;;;;;;7.50;4.75;;;9.60;84.10;;;;;;4936734;29;20119;-86
2021/11/26 09:53:22;;;;;;;7.07;4.80;;;9.60;83.60;;;;;;4938731;29;20066;-87
2021/11/26 09:55:57;;;;;;;6.65;4.00;;;9.70;83.40;;;;;;4938818;29;20066;-88
2021/11/26 09:58:27;;;;;;;5.60;3.17;;;9.70;83.30;;;;;;4940974;29;20395;-88
2021/11/26 10:00:55;;;;;;;6.20;3.30;;;9.80;83.30;;;;;;4957170;29;20075;-89
2021/11/26 10:03:38;;;;;;;8.77;4.00;;;9.80;83.30;;;;;;4956298;29;20063;-88
2021/11/26 10:06:04;;;;;;;6.10;2.97;;;9.80;83.20;;;;;;4955949;28;20047;-90
2021/11/26 10:08:30;;;;;;;6.53;3.30;;;9.80;83.00;;;;;;4933794;29;20036;-89
2021/11/26 10:11:01;;;;;;;4.82;3.53;;;9.90;82.70;;;;;;4941005;29;20558;-87
2021/11/26 10:13:32;;;;;;;5.65;3.13;;;9.90;82.50;;;;;;4928813;29;20073;-89
2021/11/26 10:16:10;;;;;;;5.93;3.28;;;9.90;82.60;;;;;;4947120;28;20085;-88
2021/11/26 10:18:35;;;;;;;10.15;3.08;;;9.90;82.70;;;;;;4937543;29;20042;-87
2021/11/26 10:21:11;;;;;;;4.90;3.60;;;9.90;83.10;;;;;;4937825;29;20031;-88
2021/11/26 10:23:44;;;;;;;6.90;4.40;;;10.00;83.10;;;;;;4935753;29;20510;-87
2021/11/26 10:26:15;;;;;;;6.43;4.05;;;10.10;82.40;;;;;;4956187;29;20041;-86
2021/11/26 10:28:48;;;;;;;5.28;3.47;;;10.20;82.10;;;;;;4928453;29;20036;-87
2021/11/26 10:31:30;;;;;;;6.57;3.40;;;10.20;82.00;;;;;;4935965;29;20063;-88
2021/11/26 10:33:59;;;;;;;7.25;4.18;;;10.20;82.10;;;;;;4933719;29;20399;-90
2021/11/26 10:36:26;;;;;;;4.30;3.03;;;10.30;81.60;;;;;;4939740;29;20059;-89
2021/11/26 10:38:54;;;;;;;6.28;3.15;;;10.30;81.30;;;;;;4939781;29;20058;-89
2021/11/26 10:41:35;;;;;;;5.60;3.65;;;10.30;81.30;;;;;;4941988;29;20039;-90
2021/11/26 10:44:12;;;;;;;5.22;3.25;;;10.30;81.50;;;;;;4924711;29;20040;-92
2021/11/26 10:51:58;;;;;;;5.50;3.40;;;10.50;81.30;;;;;;4955970;29;20409;-91
2021/11/26 10:58:17;;;;;;;8.35;4.28;;;10.60;80.70;;;;;;4929405;29;20130;-92
2021/11/26 11:00:48;;;;;;;5.47;3.83;;;10.70;81.10;;;;;;4942522;29;20062;-92
2021/11/26 11:03:23;;;;;;;2.78;2.50;;;10.80;80.50;;;;;;4945151;29;20043;-94
2021/11/26 11:06:24;;;;;;;4.32;3.38;;;10.80;79.90;;;;;;4959080;29;20039;-91
2021/11/26 11:09:10;;;;;;;3.92;2.88;;;10.80;79.60;;;;;;4940149;29;20046;-92
2021/11/26 11:11:59;;;;;;;5.88;3.70;;;10.80;79.80;;;;;;4963483;29;20049;-92
2021/11/26 11:14:38;;;;;;;4.38;2.92;;;10.80;79.60;;;;;;4932227;29;20043;-92
2021/11/26 11:17:38;;;;;;;4.70;3.05;;;10.70;79.60;;;;;;4885620;29;20162;-91
2021/11/26 11:20:17;;;;;;;6.15;3.13;;;10.70;79.80;;;;;;4853057;29;20144;-90
2021/11/26 11:22:44;;;;;;;3.65;2.83;;;10.70;80.10;;;;;;4901972;29;20118;-93
2021/11/26 11:25:29;;;;;;;4.32;3.10;;;10.70;80.00;;;;;;4942070;29;20039;-93
2021/11/26 11:28:10;;;;;;;4.13;3.33;;;10.60;79.30;;;;;;4959049;29;20043;-93
2021/11/26 11:30:40;;;;;;;6.10;3.40;;;10.60;79.70;;;;;;4942521;29;20082;-93
2021/11/26 11:33:10;;;;;;;3.72;2.70;;;10.60;79.90;;;;;;4910597;29;20043;-94
2021/11/26 11:39:10;;;;;;;5.40;2.92;;;10.50;79.70;;;;;;4958225;29;20105;-94
2021/11/26 11:45:04;;;;;;;5.60;3.22;;;10.50;79.80;;;;;;4958927;29;20083;-94
2021/11/26 11:47:32;;;;;;;5.18;3.50;;;10.50;80.10;;;;;;4941910;29;20070;-93
2021/11/26 11:50:28;;;;;;;5.38;3.65;;;10.40;80.00;;;;;;4940948;29;20054;-94
2021/11/26 11:55:46;;;;;;;12.23;5.95;;;10.40;80.00;;;;;;4910367;29;20051;-94
2021/11/26 11:58:21;;;;;;;16.50;7.82;;;10.40;80.10;;;;;;4898841;29;20044;-93
2021/11/26 12:00:50;;;;;;;31.85;11.25;;;10.40;80.10;;;;;;4892161;29;20132;-91
2021/11/26 12:03:18;;;;;;;18.75;8.80;;;10.40;80.30;;;;;;4885746;29;20128;-89
2021/11/26 12:06:05;;;;;;;16.17;7.88;;;10.40;80.30;;;;;;4883362;29;20041;-90
2021/11/26 12:08:43;;;;;;;18.45;5.60;;;10.30;80.40;;;;;;4898401;29;20047;-90
2021/11/26 12:11:10;;;;;;;10.15;3.80;;;10.30;80.70;;;;;;4898087;29;20044;-89
2021/11/26 12:13:36;;;;;;;6.45;3.85;;;10.20;80.90;;;;;;4881674;29;20041;-92
2021/11/26 12:16:16;;;;;;;6.43;3.47;;;10.20;81.30;;;;;;4881226;29;20449;-90
2021/11/26 12:18:48;;;;;;;6.53;3.17;;;10.10;81.40;;;;;;4881322;29;20040;-91
2021/11/26 12:21:16;;;;;;;4.07;2.60;;;10.10;81.50;;;;;;4896919;29;20138;-90
2021/11/26 12:24:03;;;;;;;7.32;3.80;;;10.10;81.70;;;;;;4881180;29;20037;-90
2021/11/26 12:26:50;;;;;;;5.57;2.88;;;10.10;81.90;;;;;;4911806;29;20466;-92
2021/11/26 12:29:18;;;;;;;6.78;3.72;;;10.10;82.00;;;;;;4940065;29;20037;-90
2021/11/26 12:31:44;;;;;;;7.22;3.85;;;10.10;82.00;;;;;;4938669;29;20066;-90
2021/11/26 12:34:13;;;;;;;6.72;4.22;;;10.10;81.90;;;;;;4956803;29;20474;-91
2021/11/26 12:36:44;;;;;;;7.68;3.67;;;10.10;81.90;;;;;;4940707;29;20138;-91
2021/11/26 12:39:17;;;;;;;10.35;5.07;;;10.10;81.90;;;;;;4940397;29;20039;-91
2021/11/26 12:41:45;;;;;;;8.60;4.63;;;10.10;82.10;;;;;;4940182;29;20382;-91
2021/11/26 12:44:21;;;;;;;12.75;5.22;;;10.00;82.20;;;;;;4940486;29;20035;-92
2021/11/26 12:46:53;;;;;;;17.00;9.45;;;10.00;82.20;;;;;;4956078;29;20046;-89
2021/11/26 12:52:03;;;;;;;27.88;9.60;;;9.90;83.10;;;;;;4955817;29;20039;-90
2021/11/26 12:54:30;;;;;;;17.88;8.98;;;9.80;83.20;;;;;;4939040;29;20043;-91
2021/11/26 12:56:59;;;;;;;27.95;10.48;;;9.80;83.40;;;;;;4938976;29;20394;-90
2021/11/26 12:59:45;;;;;;;22.83;8.85;;;9.70;83.80;;;;;;4938635;29;20134;-90
2021/11/26 13:02:26;;;;;;;19.60;7.53;;;9.70;84.30;;;;;;4939669;29;20035;-90
2021/11/26 13:05:00;;;;;;;18.20;8.45;;;9.70;84.60;;;;;;4942116;29;20067;-91
2021/11/26 13:07:28;;;;;;;19.58;9.15;;;9.70;84.70;;;;;;4941855;29;20054;-90
2021/11/26 13:09:57;;;;;;;17.55;8.77;;;9.60;84.70;;;;;;4941722;29;20043;-91
2021/11/26 13:12:30;;;;;;;13.13;6.50;;;9.60;85.10;;;;;;4941192;29;20386;-90
2021/11/26 13:14:59;;;;;;;17.27;7.60;;;9.50;85.20;;;;;;4942671;29;20043;-90